sensor_id;sensor_type;location;lat;lon;timestamp;pressure;altitude;pressure_sealevel;temperature
66170;BMP280;66757;44.024;20.456;2023-12-20T00:01:25;98085.91;;;2.43
66170;BMP280;66757;44.024;20.456;2023-12-20T00:03:50;98080.13;;;2.41
66170;BMP280;66757;44.024;20.456;2023-12-20T00:06:16;98075.00;;;2.30
66170;BMP280;66757;44.024;20.456;2023-12-20T00:08:41;98081.63;;;2.21
66170;BMP280;66757;44.024;20.456;2023-12-20T00:11:07;98073.53;;;2.22
66170;BMP280;66757;44.024;20.456;2023-12-20T00:13:32;98072.06;;;2.26
66170;BMP280;66757;44.024;20.456;2023-12-20T00:15:58;98065.00;;;2.27
66170;BMP280;66757;44.024;20.456;2023-12-20T00:18:23;98064.81;;;2.33
66170;BMP280;66757;44.024;20.456;2023-12-20T00:20:49;98061.41;;;2.33
66170;BMP280;66757;44.024;20.456;2023-12-20T00:23:15;98062.66;;;2.30
66170;BMP280;66757;44.024;20.456;2023-12-20T00:25:40;98059.56;;;2.33
66170;BMP280;66757;44.024;20.456;2023-12-20T00:28:06;98045.78;;;2.21
66170;BMP280;66757;44.024;20.456;2023-12-20T00:30:31;98050.03;;;1.77
66170;BMP280;66757;44.024;20.456;2023-12-20T00:32:57;98052.84;;;2.21
66170;BMP280;66757;44.024;20.456;2023-12-20T00:35:23;98051.44;;;2.30
66170;BMP280;66757;44.024;20.456;2023-12-20T00:37:48;98055.34;;;2.27
66170;BMP280;66757;44.024;20.456;2023-12-20T00:40:14;98041.91;;;2.07
66170;BMP280;66757;44.024;20.456;2023-12-20T00:42:39;98048.34;;;2.16
66170;BMP280;66757;44.024;20.456;2023-12-20T00:45:05;98045.78;;;2.21
66170;BMP280;66757;44.024;20.456;2023-12-20T00:47:31;98043.34;;;2.15
66170;BMP280;66757;44.024;20.456;2023-12-20T00:49:58;98042.28;;;1.99
66170;BMP280;66757;44.024;20.456;2023-12-20T00:52:23;98041.75;;;1.97
66170;BMP280;66757;44.024;20.456;2023-12-20T00:54:49;98038.09;;;1.98
66170;BMP280;66757;44.024;20.456;2023-12-20T00:57:15;98035.78;;;2.01
66170;BMP280;66757;44.024;20.456;2023-12-20T00:59:41;98024.53;;;2.01
66170;BMP280;66757;44.024;20.456;2023-12-20T01:02:06;98031.91;;;2.04
66170;BMP280;66757;44.024;20.456;2023-12-20T01:04:31;98029.00;;;2.17
66170;BMP280;66757;44.024;20.456;2023-12-20T01:06:57;98018.28;;;2.19
66170;BMP280;66757;44.024;20.456;2023-12-20T01:09:22;98015.84;;;2.12
66170;BMP280;66757;44.024;20.456;2023-12-20T01:11:54;98006.53;;;2.04
66170;BMP280;66757;44.024;20.456;2023-12-20T01:14:20;98014.72;;;2.08
66170;BMP280;66757;44.024;20.456;2023-12-20T01:16:46;98006.00;;;2.02
66170;BMP280;66757;44.024;20.456;2023-12-20T01:19:12;98000.44;;;1.99
66170;BMP280;66757;44.024;20.456;2023-12-20T01:21:39;97997.66;;;2.05
66170;BMP280;66757;44.024;20.456;2023-12-20T01:24:05;97995.16;;;1.94
66170;BMP280;66757;44.024;20.456;2023-12-20T01:26:30;97994.34;;;1.76
66170;BMP280;66757;44.024;20.456;2023-12-20T01:28:56;97994.00;;;1.90
66170;BMP280;66757;44.024;20.456;2023-12-20T01:31:21;97981.72;;;1.90
66170;BMP280;66757;44.024;20.456;2023-12-20T01:33:47;97980.66;;;1.86
66170;BMP280;66757;44.024;20.456;2023-12-20T01:36:12;97981.50;;;1.92
66170;BMP280;66757;44.024;20.456;2023-12-20T01:38:38;97969.44;;;1.91
66170;BMP280;66757;44.024;20.456;2023-12-20T01:41:03;97967.09;;;1.72
66170;BMP280;66757;44.024;20.456;2023-12-20T01:43:30;97957.72;;;1.76
66170;BMP280;66757;44.024;20.456;2023-12-20T01:45:59;97959.19;;;1.84
66170;BMP280;66757;44.024;20.456;2023-12-20T01:48:25;97946.91;;;1.85
66170;BMP280;66757;44.024;20.456;2023-12-20T01:50:52;97946.41;;;1.71
66170;BMP280;66757;44.024;20.456;2023-12-20T01:53:19;97944.97;;;1.63
66170;BMP280;66757;44.024;20.456;2023-12-20T01:55:47;97940.56;;;1.80
66170;BMP280;66757;44.024;20.456;2023-12-20T01:58:14;97942.75;;;1.89
66170;BMP280;66757;44.024;20.456;2023-12-20T02:00:40;97937.25;;;1.85
66170;BMP280;66757;44.024;20.456;2023-12-20T02:03:06;97931.03;;;1.74
66170;BMP280;66757;44.024;20.456;2023-12-20T02:05:33;97924.47;;;1.72
66170;BMP280;66757;44.024;20.456;2023-12-20T02:07:59;97922.63;;;1.89
66170;BMP280;66757;44.024;20.456;2023-12-20T02:10:25;97916.22;;;1.97
66170;BMP280;66757;44.024;20.456;2023-12-20T02:12:52;97915.66;;;2.11
66170;BMP280;66757;44.024;20.456;2023-12-20T02:15:17;97907.06;;;2.16
66170;BMP280;66757;44.024;20.456;2023-12-20T02:17:43;97905.34;;;2.05
66170;BMP280;66757;44.024;20.456;2023-12-20T02:20:09;97895.34;;;2.19
66170;BMP280;66757;44.024;20.456;2023-12-20T02:22:35;97891.03;;;2.29
66170;BMP280;66757;44.024;20.456;2023-12-20T02:25:01;97883.59;;;2.21
66170;BMP280;66757;44.024;20.456;2023-12-20T02:27:27;97887.09;;;2.27
66170;BMP280;66757;44.024;20.456;2023-12-20T02:29:53;97871.25;;;2.17
66170;BMP280;66757;44.024;20.456;2023-12-20T02:32:20;97876.31;;;2.45
66170;BMP280;66757;44.024;20.456;2023-12-20T02:34:49;97873.78;;;2.28
66170;BMP280;66757;44.024;20.456;2023-12-20T02:37:15;97857.75;;;2.47
66170;BMP280;66757;44.024;20.456;2023-12-20T02:39:40;97865.72;;;2.57
66170;BMP280;66757;44.024;20.456;2023-12-20T02:42:06;97862.78;;;2.31
66170;BMP280;66757;44.024;20.456;2023-12-20T02:44:31;97857.53;;;2.26
66170;BMP280;66757;44.024;20.456;2023-12-20T02:46:57;97851.13;;;2.17
66170;BMP280;66757;44.024;20.456;2023-12-20T02:49:22;97844.16;;;2.06
66170;BMP280;66757;44.024;20.456;2023-12-20T02:51:48;97846.47;;;2.02
66170;BMP280;66757;44.024;20.456;2023-12-20T02:54:13;97843.06;;;2.02
66170;BMP280;66757;44.024;20.456;2023-12-20T02:56:39;97829.66;;;2.15
66170;BMP280;66757;44.024;20.456;2023-12-20T02:59:05;97824.41;;;2.15
66170;BMP280;66757;44.024;20.456;2023-12-20T03:01:34;97832.25;;;2.15
66170;BMP280;66757;44.024;20.456;2023-12-20T03:04:00;97828.19;;;2.24
66170;BMP280;66757;44.024;20.456;2023-12-20T03:06:26;97834.06;;;2.36
66170;BMP280;66757;44.024;20.456;2023-12-20T03:08:51;97830.09;;;2.34
66170;BMP280;66757;44.024;20.456;2023-12-20T03:11:17;97832.31;;;2.42
66170;BMP280;66757;44.024;20.456;2023-12-20T03:13:42;97824.16;;;2.38
66170;BMP280;66757;44.024;20.456;2023-12-20T03:16:12;97820.41;;;2.29
66170;BMP280;66757;44.024;20.456;2023-12-20T03:18:37;97813.41;;;2.13
66170;BMP280;66757;44.024;20.456;2023-12-20T03:21:04;97815.66;;;2.26
66170;BMP280;66757;44.024;20.456;2023-12-20T03:23:30;97810.25;;;2.38
66170;BMP280;66757;44.024;20.456;2023-12-20T03:25:58;97810.44;;;2.26
66170;BMP280;66757;44.024;20.456;2023-12-20T03:28:23;97798.59;;;2.46
66170;BMP280;66757;44.024;20.456;2023-12-20T03:30:49;97793.03;;;2.64
66170;BMP280;66757;44.024;20.456;2023-12-20T03:33:15;97790.38;;;2.37
66170;BMP280;66757;44.024;20.456;2023-12-20T03:35:40;97799.63;;;2.71
66170;BMP280;66757;44.024;20.456;2023-12-20T03:38:06;97783.22;;;2.81
66170;BMP280;66757;44.024;20.456;2023-12-20T03:40:32;97788.25;;;2.56
66170;BMP280;66757;44.024;20.456;2023-12-20T03:42:58;97782.34;;;2.70
66170;BMP280;66757;44.024;20.456;2023-12-20T03:45:24;97783.59;;;2.63
66170;BMP280;66757;44.024;20.456;2023-12-20T03:47:50;97785.75;;;2.71
66170;BMP280;66757;44.024;20.456;2023-12-20T03:50:21;97779.03;;;2.80
66170;BMP280;66757;44.024;20.456;2023-12-20T03:52:47;97769.16;;;2.87
66170;BMP280;66757;44.024;20.456;2023-12-20T03:55:12;97773.75;;;2.48
66170;BMP280;66757;44.024;20.456;2023-12-20T03:57:38;97774.66;;;2.86
66170;BMP280;66757;44.024;20.456;2023-12-20T04:00:04;97764.34;;;2.79
66170;BMP280;66757;44.024;20.456;2023-12-20T04:02:30;97771.03;;;2.92
66170;BMP280;66757;44.024;20.456;2023-12-20T04:04:56;97769.34;;;2.81
66170;BMP280;66757;44.024;20.456;2023-12-20T04:07:21;97764.81;;;3.03
66170;BMP280;66757;44.024;20.456;2023-12-20T04:09:47;97764.50;;;2.94
66170;BMP280;66757;44.024;20.456;2023-12-20T04:12:13;97764.75;;;2.93
66170;BMP280;66757;44.024;20.456;2023-12-20T04:14:39;97766.81;;;2.96
66170;BMP280;66757;44.024;20.456;2023-12-20T04:17:04;97761.41;;;3.02
66170;BMP280;66757;44.024;20.456;2023-12-20T04:19:30;97756.88;;;2.93
66170;BMP280;66757;44.024;20.456;2023-12-20T04:21:55;97749.50;;;2.85
66170;BMP280;66757;44.024;20.456;2023-12-20T04:24:21;97750.69;;;3.04
66170;BMP280;66757;44.024;20.456;2023-12-20T04:26:47;97745.53;;;3.14
66170;BMP280;66757;44.024;20.456;2023-12-20T04:29:13;97736.16;;;2.86
66170;BMP280;66757;44.024;20.456;2023-12-20T04:31:38;97746.84;;;3.17
66170;BMP280;66757;44.024;20.456;2023-12-20T04:34:04;97730.69;;;2.93
66170;BMP280;66757;44.024;20.456;2023-12-20T04:36:29;97727.44;;;3.13
66170;BMP280;66757;44.024;20.456;2023-12-20T04:38:55;97725.84;;;3.12
66170;BMP280;66757;44.024;20.456;2023-12-20T04:41:20;97725.13;;;3.26
66170;BMP280;66757;44.024;20.456;2023-12-20T04:43:46;97726.97;;;3.26
66170;BMP280;66757;44.024;20.456;2023-12-20T04:46:13;97720.91;;;3.15
66170;BMP280;66757;44.024;20.456;2023-12-20T04:48:38;97729.03;;;3.24
66170;BMP280;66757;44.024;20.456;2023-12-20T04:51:04;97712.34;;;3.30
66170;BMP280;66757;44.024;20.456;2023-12-20T04:53:30;97712.34;;;3.35
66170;BMP280;66757;44.024;20.456;2023-12-20T04:55:55;97717.16;;;3.48
66170;BMP280;66757;44.024;20.456;2023-12-20T04:58:21;97720.16;;;3.25
66170;BMP280;66757;44.024;20.456;2023-12-20T05:00:46;97713.47;;;3.02
66170;BMP280;66757;44.024;20.456;2023-12-20T05:03:12;97719.81;;;3.11
66170;BMP280;66757;44.024;20.456;2023-12-20T05:05:37;97716.16;;;3.12
66170;BMP280;66757;44.024;20.456;2023-12-20T05:08:03;97704.84;;;3.06
66170;BMP280;66757;44.024;20.456;2023-12-20T05:10:29;97704.00;;;3.38
66170;BMP280;66757;44.024;20.456;2023-12-20T05:12:54;97708.63;;;3.26
66170;BMP280;66757;44.024;20.456;2023-12-20T05:15:20;97705.09;;;3.52
66170;BMP280;66757;44.024;20.456;2023-12-20T05:17:45;97694.69;;;3.62
66170;BMP280;66757;44.024;20.456;2023-12-20T05:20:11;97703.06;;;3.64
66170;BMP280;66757;44.024;20.456;2023-12-20T05:22:36;97699.84;;;3.52
66170;BMP280;66757;44.024;20.456;2023-12-20T05:25:02;97701.06;;;3.29
66170;BMP280;66757;44.024;20.456;2023-12-20T05:27:29;97703.28;;;3.48
66170;BMP280;66757;44.024;20.456;2023-12-20T05:29:55;97695.66;;;3.56
66170;BMP280;66757;44.024;20.456;2023-12-20T05:32:23;97698.53;;;3.45
66170;BMP280;66757;44.024;20.456;2023-12-20T05:34:49;97695.13;;;3.54
66170;BMP280;66757;44.024;20.456;2023-12-20T05:37:14;97695.44;;;3.58
66170;BMP280;66757;44.024;20.456;2023-12-20T05:39:40;97695.66;;;3.56
66170;BMP280;66757;44.024;20.456;2023-12-20T05:42:05;97693.84;;;3.57
66170;BMP280;66757;44.024;20.456;2023-12-20T05:44:31;97690.28;;;3.73
66170;BMP280;66757;44.024;20.456;2023-12-20T05:46:56;97689.44;;;3.67
66170;BMP280;66757;44.024;20.456;2023-12-20T05:49:22;97683.41;;;3.67
66170;BMP280;66757;44.024;20.456;2023-12-20T05:51:47;97680.56;;;3.79
66170;BMP280;66757;44.024;20.456;2023-12-20T05:54:13;97679.84;;;3.93
66170;BMP280;66757;44.024;20.456;2023-12-20T05:56:38;97670.13;;;3.94
66170;BMP280;66757;44.024;20.456;2023-12-20T05:59:05;97664.38;;;4.12
66170;BMP280;66757;44.024;20.456;2023-12-20T06:01:30;97658.59;;;4.05
66170;BMP280;66757;44.024;20.456;2023-12-20T06:03:56;97658.34;;;4.12
66170;BMP280;66757;44.024;20.456;2023-12-20T06:06:21;97658.88;;;4.14
66170;BMP280;66757;44.024;20.456;2023-12-20T06:08:47;97664.97;;;3.52
66170;BMP280;66757;44.024;20.456;2023-12-20T06:11:12;97649.63;;;3.86
66170;BMP280;66757;44.024;20.456;2023-12-20T06:13:38;97656.72;;;4.00
66170;BMP280;66757;44.024;20.456;2023-12-20T06:16:05;97645.75;;;4.09
66170;BMP280;66757;44.024;20.456;2023-12-20T06:18:32;97648.91;;;4.26
66170;BMP280;66757;44.024;20.456;2023-12-20T06:20:57;97647.09;;;4.37
66170;BMP280;66757;44.024;20.456;2023-12-20T06:23:23;97645.50;;;4.25
66170;BMP280;66757;44.024;20.456;2023-12-20T06:25:48;97649.41;;;4.28
66170;BMP280;66757;44.024;20.456;2023-12-20T06:28:14;97645.25;;;4.37
66170;BMP280;66757;44.024;20.456;2023-12-20T06:30:40;97646.03;;;4.38
66170;BMP280;66757;44.024;20.456;2023-12-20T06:33:05;97643.94;;;4.35
66170;BMP280;66757;44.024;20.456;2023-12-20T06:35:33;97644.47;;;4.31
66170;BMP280;66757;44.024;20.456;2023-12-20T06:37:58;97649.19;;;4.35
66170;BMP280;66757;44.024;20.456;2023-12-20T06:40:24;97646.00;;;4.27
66170;BMP280;66757;44.024;20.456;2023-12-20T06:42:49;97639.19;;;4.42
66170;BMP280;66757;44.024;20.456;2023-12-20T06:45:15;97645.78;;;4.34
66170;BMP280;66757;44.024;20.456;2023-12-20T06:47:40;97638.69;;;4.35
66170;BMP280;66757;44.024;20.456;2023-12-20T06:50:06;97634.97;;;4.46
66170;BMP280;66757;44.024;20.456;2023-12-20T06:52:33;97636.59;;;4.47
66170;BMP280;66757;44.024;20.456;2023-12-20T06:55:00;97640.00;;;4.47
66170;BMP280;66757;44.024;20.456;2023-12-20T06:57:25;97636.03;;;4.55
66170;BMP280;66757;44.024;20.456;2023-12-20T06:59:51;97638.38;;;4.67
66170;BMP280;66757;44.024;20.456;2023-12-20T07:02:17;97632.34;;;4.66
66170;BMP280;66757;44.024;20.456;2023-12-20T07:04:43;97635.25;;;4.54
66170;BMP280;66757;44.024;20.456;2023-12-20T07:07:08;97641.56;;;4.18
66170;BMP280;66757;44.024;20.456;2023-12-20T07:09:34;97640.00;;;4.32
66170;BMP280;66757;44.024;20.456;2023-12-20T07:11:59;97641.28;;;4.09
66170;BMP280;66757;44.024;20.456;2023-12-20T07:14:25;97638.13;;;4.07
66170;BMP280;66757;44.024;20.456;2023-12-20T07:16:51;97630.25;;;4.12
66170;BMP280;66757;44.024;20.456;2023-12-20T07:19:16;97627.66;;;4.38
66170;BMP280;66757;44.024;20.456;2023-12-20T07:21:43;97625.78;;;4.74
66170;BMP280;66757;44.024;20.456;2023-12-20T07:24:08;97617.59;;;4.80
66170;BMP280;66757;44.024;20.456;2023-12-20T07:26:34;97625.22;;;4.82
66170;BMP280;66757;44.024;20.456;2023-12-20T07:29:01;97613.97;;;4.66
66170;BMP280;66757;44.024;20.456;2023-12-20T07:31:26;97609.94;;;4.94
66170;BMP280;66757;44.024;20.456;2023-12-20T07:33:52;97631.22;;;5.03
66170;BMP280;66757;44.024;20.456;2023-12-20T07:36:19;97619.88;;;5.12
66170;BMP280;66757;44.024;20.456;2023-12-20T07:38:45;97615.41;;;5.13
66170;BMP280;66757;44.024;20.456;2023-12-20T07:41:10;97613.22;;;5.30
66170;BMP280;66757;44.024;20.456;2023-12-20T07:43:36;97613.88;;;5.07
66170;BMP280;66757;44.024;20.456;2023-12-20T07:46:08;97621.50;;;4.98
66170;BMP280;66757;44.024;20.456;2023-12-20T07:48:35;97611.47;;;5.10
66170;BMP280;66757;44.024;20.456;2023-12-20T07:51:01;97610.03;;;5.43
66170;BMP280;66757;44.024;20.456;2023-12-20T07:53:27;97605.00;;;5.47
66170;BMP280;66757;44.024;20.456;2023-12-20T07:55:53;97616.28;;;5.52
66170;BMP280;66757;44.024;20.456;2023-12-20T07:58:19;97609.19;;;5.53
66170;BMP280;66757;44.024;20.456;2023-12-20T08:00:44;97607.88;;;5.50
66170;BMP280;66757;44.024;20.456;2023-12-20T08:03:10;97606.19;;;5.65
66170;BMP280;66757;44.024;20.456;2023-12-20T08:05:35;97606.28;;;5.54
66170;BMP280;66757;44.024;20.456;2023-12-20T08:08:01;97607.25;;;5.69
66170;BMP280;66757;44.024;20.456;2023-12-20T08:10:27;97605.75;;;5.97
66170;BMP280;66757;44.024;20.456;2023-12-20T08:12:55;97610.75;;;5.93
66170;BMP280;66757;44.024;20.456;2023-12-20T08:15:20;97610.69;;;6.03
66170;BMP280;66757;44.024;20.456;2023-12-20T08:17:46;97607.66;;;6.20
66170;BMP280;66757;44.024;20.456;2023-12-20T08:20:12;97610.38;;;6.44
66170;BMP280;66757;44.024;20.456;2023-12-20T08:22:37;97607.72;;;6.44
66170;BMP280;66757;44.024;20.456;2023-12-20T08:25:03;97602.88;;;6.56
66170;BMP280;66757;44.024;20.456;2023-12-20T08:27:29;97606.28;;;6.80
66170;BMP280;66757;44.024;20.456;2023-12-20T08:29:54;97602.34;;;7.02
66170;BMP280;66757;44.024;20.456;2023-12-20T08:32:20;97602.00;;;7.27
66170;BMP280;66757;44.024;20.456;2023-12-20T08:34:47;97592.47;;;7.50
66170;BMP280;66757;44.024;20.456;2023-12-20T08:37:12;97591.19;;;7.47
66170;BMP280;66757;44.024;20.456;2023-12-20T08:39:38;97599.06;;;7.85
66170;BMP280;66757;44.024;20.456;2023-12-20T08:42:04;97584.50;;;8.06
66170;BMP280;66757;44.024;20.456;2023-12-20T08:44:29;97587.50;;;8.13
66170;BMP280;66757;44.024;20.456;2023-12-20T08:46:56;97579.75;;;7.89
66170;BMP280;66757;44.024;20.456;2023-12-20T08:49:22;97578.97;;;8.21
66170;BMP280;66757;44.024;20.456;2023-12-20T08:51:48;97578.88;;;8.40
66170;BMP280;66757;44.024;20.456;2023-12-20T08:54:13;97570.94;;;8.54
66170;BMP280;66757;44.024;20.456;2023-12-20T08:56:39;97578.00;;;8.72
66170;BMP280;66757;44.024;20.456;2023-12-20T08:59:04;97569.09;;;8.68
66170;BMP280;66757;44.024;20.456;2023-12-20T09:01:30;97559.13;;;8.51
66170;BMP280;66757;44.024;20.456;2023-12-20T09:03:55;97562.91;;;8.59
66170;BMP280;66757;44.024;20.456;2023-12-20T09:06:21;97553.81;;;8.65
66170;BMP280;66757;44.024;20.456;2023-12-20T09:08:46;97559.09;;;8.65
66170;BMP280;66757;44.024;20.456;2023-12-20T09:11:12;97557.09;;;8.84
66170;BMP280;66757;44.024;20.456;2023-12-20T09:13:38;97549.19;;;8.84
66170;BMP280;66757;44.024;20.456;2023-12-20T09:16:04;97548.44;;;8.70
66170;BMP280;66757;44.024;20.456;2023-12-20T09:18:29;97543.91;;;8.57
66170;BMP280;66757;44.024;20.456;2023-12-20T09:20:55;97529.78;;;8.89
66170;BMP280;66757;44.024;20.456;2023-12-20T09:23:20;97519.09;;;9.08
66170;BMP280;66757;44.024;20.456;2023-12-20T09:25:46;97528.19;;;9.02
66170;BMP280;66757;44.024;20.456;2023-12-20T09:28:12;97521.34;;;9.01
66170;BMP280;66757;44.024;20.456;2023-12-20T09:30:38;97513.03;;;8.93
66170;BMP280;66757;44.024;20.456;2023-12-20T09:33:05;97510.88;;;8.96
66170;BMP280;66757;44.024;20.456;2023-12-20T09:35:32;97509.22;;;9.22
66170;BMP280;66757;44.024;20.456;2023-12-20T09:37:58;97496.34;;;9.51
66170;BMP280;66757;44.024;20.456;2023-12-20T09:40:26;97501.84;;;9.86
66170;BMP280;66757;44.024;20.456;2023-12-20T09:43:03;97495.13;;;10.19
66170;BMP280;66757;44.024;20.456;2023-12-20T09:45:30;97488.44;;;10.39
66170;BMP280;66757;44.024;20.456;2023-12-20T09:47:57;97476.97;;;10.52
66170;BMP280;66757;44.024;20.456;2023-12-20T09:50:23;97471.97;;;10.68
66170;BMP280;66757;44.024;20.456;2023-12-20T09:52:50;97467.00;;;10.75
66170;BMP280;66757;44.024;20.456;2023-12-20T09:55:20;97463.22;;;11.19
66170;BMP280;66757;44.024;20.456;2023-12-20T09:57:47;97465.28;;;10.88
66170;BMP280;66757;44.024;20.456;2023-12-20T10:00:14;97466.06;;;11.06
66170;BMP280;66757;44.024;20.456;2023-12-20T10:02:50;97459.47;;;11.20
66170;BMP280;66757;44.024;20.456;2023-12-20T10:05:17;97448.25;;;11.15
66170;BMP280;66757;44.024;20.456;2023-12-20T10:07:46;97446.03;;;11.25
66170;BMP280;66757;44.024;20.456;2023-12-20T10:10:13;97443.88;;;11.02
66170;BMP280;66757;44.024;20.456;2023-12-20T10:12:39;97449.59;;;11.47
66170;BMP280;66757;44.024;20.456;2023-12-20T10:15:06;97446.56;;;10.93
66170;BMP280;66757;44.024;20.456;2023-12-20T10:17:31;97445.63;;;11.15
66170;BMP280;66757;44.024;20.456;2023-12-20T10:19:58;97438.06;;;11.25
66170;BMP280;66757;44.024;20.456;2023-12-20T10:22:24;97436.06;;;11.22
66170;BMP280;66757;44.024;20.456;2023-12-20T10:24:49;97430.59;;;11.19
66170;BMP280;66757;44.024;20.456;2023-12-20T10:27:17;97435.00;;;10.97
66170;BMP280;66757;44.024;20.456;2023-12-20T10:29:44;97443.91;;;10.84
66170;BMP280;66757;44.024;20.456;2023-12-20T10:32:27;97432.34;;;10.97
66170;BMP280;66757;44.024;20.456;2023-12-20T10:34:54;97424.50;;;11.10
66170;BMP280;66757;44.024;20.456;2023-12-20T10:37:20;97429.19;;;11.13
66170;BMP280;66757;44.024;20.456;2023-12-20T10:39:51;97429.03;;;11.09
66170;BMP280;66757;44.024;20.456;2023-12-20T10:42:27;97428.28;;;11.09
66170;BMP280;66757;44.024;20.456;2023-12-20T10:44:52;97433.28;;;11.57
66170;BMP280;66757;44.024;20.456;2023-12-20T10:47:21;97430.81;;;11.60
66170;BMP280;66757;44.024;20.456;2023-12-20T10:49:47;97424.13;;;11.46
66170;BMP280;66757;44.024;20.456;2023-12-20T10:52:13;97424.09;;;11.54
66170;BMP280;66757;44.024;20.456;2023-12-20T10:54:40;97428.00;;;12.16
66170;BMP280;66757;44.024;20.456;2023-12-20T10:57:07;97427.94;;;12.45
66170;BMP280;66757;44.024;20.456;2023-12-20T10:59:36;97423.97;;;12.72
66170;BMP280;66757;44.024;20.456;2023-12-20T11:02:03;97420.50;;;13.62
66170;BMP280;66757;44.024;20.456;2023-12-20T11:04:51;97420.41;;;13.82
66170;BMP280;66757;44.024;20.456;2023-12-20T11:07:38;97408.16;;;14.06
66170;BMP280;66757;44.024;20.456;2023-12-20T11:10:29;97403.75;;;14.25
66170;BMP280;66757;44.024;20.456;2023-12-20T11:13:39;97399.09;;;14.63
66170;BMP280;66757;44.024;20.456;2023-12-20T11:16:06;97389.28;;;14.67
66170;BMP280;66757;44.024;20.456;2023-12-20T11:18:33;97381.41;;;15.17
66170;BMP280;66757;44.024;20.456;2023-12-20T11:21:04;97382.75;;;15.58
66170;BMP280;66757;44.024;20.456;2023-12-20T11:23:30;97383.44;;;15.40
66170;BMP280;66757;44.024;20.456;2023-12-20T11:25:58;97375.31;;;16.22
66170;BMP280;66757;44.024;20.456;2023-12-20T11:28:24;97369.22;;;16.63
66170;BMP280;66757;44.024;20.456;2023-12-20T11:30:55;97375.72;;;17.08
66170;BMP280;66757;44.024;20.456;2023-12-20T11:33:25;97367.31;;;16.64
66170;BMP280;66757;44.024;20.456;2023-12-20T11:35:51;97359.53;;;16.59
66170;BMP280;66757;44.024;20.456;2023-12-20T11:38:20;97374.59;;;16.05
66170;BMP280;66757;44.024;20.456;2023-12-20T11:40:48;97366.81;;;17.04
66170;BMP280;66757;44.024;20.456;2023-12-20T11:43:30;97358.31;;;16.75
66170;BMP280;66757;44.024;20.456;2023-12-20T11:46:02;97358.91;;;17.11
66170;BMP280;66757;44.024;20.456;2023-12-20T11:48:30;97363.25;;;16.96
66170;BMP280;66757;44.024;20.456;2023-12-20T11:50:57;97365.72;;;18.21
66170;BMP280;66757;44.024;20.456;2023-12-20T11:53:23;97349.28;;;18.26
66170;BMP280;66757;44.024;20.456;2023-12-20T11:55:49;97351.88;;;19.00
66170;BMP280;66757;44.024;20.456;2023-12-20T11:58:14;97333.28;;;19.35
66170;BMP280;66757;44.024;20.456;2023-12-20T12:00:42;97336.31;;;20.27
66170;BMP280;66757;44.024;20.456;2023-12-20T12:03:08;97339.56;;;19.60
66170;BMP280;66757;44.024;20.456;2023-12-20T12:05:34;97332.75;;;19.08
66170;BMP280;66757;44.024;20.456;2023-12-20T12:08:01;97340.88;;;18.68
66170;BMP280;66757;44.024;20.456;2023-12-20T12:10:26;97336.69;;;18.30
66170;BMP280;66757;44.024;20.456;2023-12-20T12:12:52;97330.44;;;18.59
66170;BMP280;66757;44.024;20.456;2023-12-20T12:15:18;97323.44;;;18.11
66170;BMP280;66757;44.024;20.456;2023-12-20T12:17:43;97322.69;;;17.50
66170;BMP280;66757;44.024;20.456;2023-12-20T12:20:09;97326.81;;;17.71
66170;BMP280;66757;44.024;20.456;2023-12-20T12:22:35;97324.16;;;17.44
66170;BMP280;66757;44.024;20.456;2023-12-20T12:25:12;97319.97;;;17.20
66170;BMP280;66757;44.024;20.456;2023-12-20T12:27:40;97311.41;;;17.08
66170;BMP280;66757;44.024;20.456;2023-12-20T12:30:06;97320.53;;;17.59
66170;BMP280;66757;44.024;20.456;2023-12-20T12:32:36;97312.47;;;17.03
66170;BMP280;66757;44.024;20.456;2023-12-20T12:35:05;97315.50;;;17.24
66170;BMP280;66757;44.024;20.456;2023-12-20T12:37:34;97318.13;;;18.14
66170;BMP280;66757;44.024;20.456;2023-12-20T12:40:00;97317.56;;;18.38
66170;BMP280;66757;44.024;20.456;2023-12-20T12:42:26;97314.63;;;19.74
66170;BMP280;66757;44.024;20.456;2023-12-20T12:44:54;97319.00;;;20.49
66170;BMP280;66757;44.024;20.456;2023-12-20T12:47:21;97318.88;;;19.79
66170;BMP280;66757;44.024;20.456;2023-12-20T12:49:46;97320.50;;;18.63
66170;BMP280;66757;44.024;20.456;2023-12-20T12:52:12;97317.78;;;18.60
66170;BMP280;66757;44.024;20.456;2023-12-20T12:54:37;97317.59;;;19.48
66170;BMP280;66757;44.024;20.456;2023-12-20T12:57:03;97320.34;;;18.97
66170;BMP280;66757;44.024;20.456;2023-12-20T12:59:29;97322.91;;;18.79
66170;BMP280;66757;44.024;20.456;2023-12-20T13:01:54;97324.97;;;19.72
66170;BMP280;66757;44.024;20.456;2023-12-20T13:04:20;97316.06;;;19.50
66170;BMP280;66757;44.024;20.456;2023-12-20T13:06:45;97325.53;;;19.23
66170;BMP280;66757;44.024;20.456;2023-12-20T13:09:12;97327.84;;;20.22
66170;BMP280;66757;44.024;20.456;2023-12-20T13:11:37;97320.91;;;20.28
66170;BMP280;66757;44.024;20.456;2023-12-20T13:14:03;97315.94;;;20.69
66170;BMP280;66757;44.024;20.456;2023-12-20T13:16:29;97310.47;;;21.04
66170;BMP280;66757;44.024;20.456;2023-12-20T13:18:54;97318.09;;;21.34
66170;BMP280;66757;44.024;20.456;2023-12-20T13:21:21;97323.94;;;20.01
66170;BMP280;66757;44.024;20.456;2023-12-20T13:23:47;97321.31;;;20.26
66170;BMP280;66757;44.024;20.456;2023-12-20T13:26:14;97316.56;;;21.40
66170;BMP280;66757;44.024;20.456;2023-12-20T13:28:39;97319.81;;;21.83
66170;BMP280;66757;44.024;20.456;2023-12-20T13:31:05;97325.69;;;21.67
66170;BMP280;66757;44.024;20.456;2023-12-20T13:33:30;97325.94;;;21.98
66170;BMP280;66757;44.024;20.456;2023-12-20T13:35:56;97320.88;;;20.99
66170;BMP280;66757;44.024;20.456;2023-12-20T13:38:23;97315.88;;;20.08
66170;BMP280;66757;44.024;20.456;2023-12-20T13:40:51;97322.66;;;18.95
66170;BMP280;66757;44.024;20.456;2023-12-20T13:43:16;97324.38;;;17.92
66170;BMP280;66757;44.024;20.456;2023-12-20T13:45:46;97319.63;;;16.96
66170;BMP280;66757;44.024;20.456;2023-12-20T13:48:12;97321.59;;;16.76
66170;BMP280;66757;44.024;20.456;2023-12-20T13:50:37;97320.16;;;15.79
66170;BMP280;66757;44.024;20.456;2023-12-20T13:53:04;97323.22;;;16.16
66170;BMP280;66757;44.024;20.456;2023-12-20T13:55:30;97333.50;;;15.94
66170;BMP280;66757;44.024;20.456;2023-12-20T13:57:56;97335.63;;;15.69
66170;BMP280;66757;44.024;20.456;2023-12-20T14:00:22;97341.34;;;15.68